createdAt,value
2019-04-26T00:02:18.552Z,57.00
2019-04-26T00:04:46.879Z,57.50
2019-04-26T00:07:15.465Z,57.50
2019-04-26T00:09:44.810Z,57.50
2019-04-26T00:12:38.540Z,57.70
2019-04-26T00:15:25.829Z,57.70
2019-04-26T00:17:56.291Z,57.80
2019-04-26T00:20:24.354Z,57.40
2019-04-26T00:22:52.601Z,57.50
2019-04-26T00:25:20.795Z,57.30
2019-04-26T00:27:49.009Z,57.10
2019-04-26T00:30:17.451Z,57.40
2019-04-26T00:32:45.628Z,57.40
2019-04-26T00:35:16.073Z,56.90
2019-04-26T00:37:44.227Z,57.60
2019-04-26T00:40:13.264Z,57.20
2019-04-26T00:42:43.385Z,58.00
2019-04-26T00:45:12.342Z,58.40
2019-04-26T00:47:43.079Z,58.90
2019-04-26T00:50:11.617Z,58.80
2019-04-26T00:52:40.740Z,58.70
2019-04-26T00:55:09.299Z,59.00
2019-04-26T00:57:37.877Z,58.80
2019-04-26T01:00:06.882Z,59.00
2019-04-26T01:02:40.627Z,59.00
2019-04-26T01:05:09.099Z,58.60
2019-04-26T01:07:37.642Z,58.40
2019-04-26T01:10:05.799Z,59.00
2019-04-26T01:12:33.989Z,58.60
2019-04-26T01:15:02.148Z,58.80
2019-04-26T01:17:30.656Z,59.20
2019-04-26T01:20:01.217Z,58.90
2019-04-26T01:22:34.743Z,58.30
2019-04-26T01:25:04.797Z,58.50
2019-04-26T01:27:36.476Z,59.20
2019-04-26T01:30:09.951Z,60.00
2019-04-26T01:32:42.464Z,59.50
2019-04-26T01:35:11.263Z,59.50
2019-04-26T01:37:44.828Z,59.70
2019-04-26T01:40:17.255Z,59.80
2019-04-26T01:42:58.597Z,61.40
2019-04-26T01:45:47.115Z,61.90
2019-04-26T01:48:44.701Z,62.20
2019-04-26T01:51:22.799Z,61.70
2019-04-26T01:53:51.910Z,61.00
2019-04-26T01:56:29.200Z,61.10
2019-04-26T01:58:57.490Z,60.80
2019-04-26T02:01:37.050Z,60.60
2019-04-26T02:04:05.284Z,60.90
2019-04-26T02:06:35.235Z,60.80
2019-04-26T02:09:07.462Z,60.60
2019-04-26T02:11:36.011Z,60.50
2019-04-26T02:14:04.627Z,60.50
2019-04-26T02:16:33.341Z,60.50
2019-04-26T02:19:01.931Z,60.40
2019-04-26T02:21:42.015Z,60.70
2019-04-26T02:24:30.129Z,60.80
2019-04-26T02:27:00.137Z,60.10
2019-04-26T02:29:28.679Z,59.80
2019-04-26T02:32:05.706Z,60.20
2019-04-26T02:34:35.998Z,60.10
2019-04-26T02:37:09.454Z,59.50
2019-04-26T02:39:40.274Z,60.10
2019-04-26T02:42:40.688Z,60.60
2019-04-26T02:46:09.111Z,60.20
2019-04-26T02:49:12.769Z,59.90
2019-04-26T02:51:51.054Z,60.10
2019-04-26T02:54:45.080Z,60.10
2019-04-26T02:57:41.645Z,59.90
2019-04-26T03:00:13.775Z,59.70
2019-04-26T03:02:45.800Z,59.80
2019-04-26T03:05:16.008Z,59.90
2019-04-26T03:08:15.845Z,59.90
2019-04-26T03:10:50.975Z,60.00
2019-04-26T03:13:59.462Z,59.90
2019-04-26T03:17:00.136Z,60.20
2019-04-26T03:20:01.313Z,60.20
2019-04-26T03:23:05.802Z,60.40
2019-04-26T03:26:09.197Z,61.20
2019-04-26T03:29:06.559Z,62.00
2019-04-26T03:32:15.561Z,62.50
2019-04-26T03:35:43.974Z,63.20
2019-04-26T03:38:44.725Z,63.20
2019-04-26T03:41:42.893Z,63.20
2019-04-26T03:44:29.909Z,64.00
2019-04-26T03:47:04.530Z,63.50
2019-04-26T03:50:09.678Z,63.40
2019-04-26T03:53:42.022Z,63.90
2019-04-26T03:57:03.239Z,64.30
2019-04-26T04:00:03.061Z,63.70
2019-04-26T04:03:16.626Z,63.70
2019-04-26T04:05:49.904Z,64.10
2019-04-26T04:08:26.532Z,64.30
2019-04-26T04:11:04.066Z,64.90
2019-04-26T04:14:15.926Z,65.90
2019-04-26T04:17:07.902Z,67.00
2019-04-26T04:20:31.112Z,67.10
2019-04-26T04:23:45.429Z,67.10
2019-04-26T04:26:21.715Z,67.10
2019-04-26T04:29:50.524Z,67.40
2019-04-26T04:32:32.213Z,67.80
2019-04-26T04:35:07.178Z,68.60
2019-04-26T04:38:05.814Z,69.20
2019-04-26T04:41:13.138Z,69.20
2019-04-26T04:43:57.275Z,70.60
2019-04-26T04:47:41.294Z,72.50
2019-04-26T04:50:34.128Z,74.90
2019-04-26T04:53:43.457Z,78.40
2019-04-26T04:57:04.467Z,81.20
2019-04-26T05:00:07.148Z,83.00
2019-04-26T05:03:07.878Z,85.60
2019-04-26T05:06:39.057Z,87.50
2019-04-26T05:09:18.635Z,89.40
2019-04-26T05:12:21.611Z,91.00
2019-04-26T05:15:59.127Z,92.10
2019-04-26T05:19:42.925Z,93.30
2019-04-26T05:23:02.385Z,95.60
2019-04-26T05:26:33.134Z,97.00
2019-04-26T05:29:41.762Z,98.50
2019-04-26T05:33:32.330Z,99.80
2019-04-26T05:37:08.065Z,99.90
2019-04-26T05:40:24.176Z,99.90
2019-04-26T05:43:42.617Z,99.90
2019-04-26T05:47:09.548Z,99.90
2019-04-26T05:51:04.079Z,99.90
2019-04-26T05:54:19.299Z,99.90
2019-04-26T05:57:27.790Z,99.90
2019-04-26T06:00:34.462Z,99.90
2019-04-26T06:04:13.209Z,99.90
2019-04-26T06:07:26.269Z,99.90
2019-04-26T06:10:25.933Z,99.90
2019-04-26T06:13:44.230Z,99.90
2019-04-26T06:16:42.853Z,99.90
2019-04-26T06:19:28.484Z,99.90
2019-04-26T06:22:20.399Z,99.90
2019-04-26T06:25:21.355Z,99.90
2019-04-26T06:28:32.105Z,99.90
2019-04-26T06:31:21.415Z,99.90
2019-04-26T06:34:09.004Z,99.90
2019-04-26T06:37:03.024Z,99.90
2019-04-26T06:40:17.582Z,99.90
2019-04-26T06:43:34.057Z,99.90
2019-04-26T06:46:52.990Z,99.90
2019-04-26T06:50:20.711Z,99.90
2019-04-26T06:53:04.782Z,99.90
2019-04-26T06:55:58.140Z,99.90
2019-04-26T06:59:43.193Z,99.90
2019-04-26T07:02:46.294Z,99.90
2019-04-26T07:05:21.630Z,99.90
2019-04-26T07:08:21.241Z,99.90
2019-04-26T07:11:56.276Z,99.90
2019-04-26T07:15:12.083Z,99.90
2019-04-26T07:18:31.576Z,99.90
2019-04-26T07:21:22.448Z,99.90
2019-04-26T07:24:53.496Z,99.90
2019-04-26T07:27:48.223Z,99.90
2019-04-26T07:30:46.613Z,99.90
2019-04-26T07:34:16.770Z,99.90
2019-04-26T07:37:41.971Z,99.90
2019-04-26T07:40:52.719Z,99.90
2019-04-26T07:44:05.867Z,99.90
2019-04-26T07:47:24.579Z,99.90
2019-04-26T07:50:47.945Z,99.90
2019-04-26T07:54:07.159Z,99.90
2019-04-26T07:57:38.961Z,99.90
2019-04-26T08:00:44.677Z,99.90
2019-04-26T08:03:45.477Z,99.90
2019-04-26T08:06:51.567Z,99.90
2019-04-26T08:09:27.541Z,99.90
2019-04-26T08:12:04.960Z,99.90
2019-04-26T08:15:09.026Z,99.90
2019-04-26T08:17:56.257Z,99.70
2019-04-26T08:20:44.953Z,99.40
2019-04-26T08:23:39.213Z,99.20
2019-04-26T08:25:59.780Z,99.00
2019-04-26T08:28:32.233Z,99.20
2019-04-26T08:31:07.310Z,99.90
2019-04-26T08:33:48.561Z,99.90
2019-04-26T08:36:17.698Z,99.80
2019-04-26T08:38:48.820Z,99.10
2019-04-26T08:41:22.123Z,99.80
2019-04-26T08:44:14.462Z,98.60
2019-04-26T08:47:13.707Z,98.80
2019-04-26T08:49:46.890Z,99.50
2019-04-26T08:52:19.562Z,99.40
2019-04-26T08:54:55.129Z,99.50
2019-04-26T08:57:28.978Z,99.90
2019-04-26T09:00:01.739Z,99.90
2019-04-26T09:02:52.119Z,99.90
2019-04-26T09:05:45.731Z,99.60
2019-04-26T09:08:17.221Z,99.30
2019-04-26T09:10:49.165Z,99.30
2019-04-26T09:13:24.588Z,99.20
2019-04-26T09:16:22.926Z,99.60
2019-04-26T09:18:54.293Z,99.40
2019-04-26T09:21:40.911Z,99.90
2019-04-26T09:24:26.735Z,99.00
2019-04-26T09:26:59.176Z,98.80
2019-04-26T09:29:46.423Z,99.00
2019-04-26T09:32:17.609Z,98.30
2019-04-26T09:34:46.677Z,98.50
2019-04-26T09:37:15.275Z,98.10
2019-04-26T09:39:43.561Z,97.80
2019-04-26T09:42:22.619Z,97.70
2019-04-26T09:45:11.936Z,96.90
2019-04-26T09:47:46.173Z,97.30
2019-04-26T09:50:39.594Z,97.00
2019-04-26T09:53:08.025Z,96.60
2019-04-26T09:55:36.111Z,97.20
2019-04-26T09:58:04.577Z,96.90
2019-04-26T10:00:32.743Z,96.90
2019-04-26T10:03:05.425Z,97.20
2019-04-26T10:05:32.853Z,96.60
2019-04-26T10:08:01.131Z,96.40
2019-04-26T10:10:34.960Z,96.20
2019-04-26T10:13:15.106Z,96.90
2019-04-26T10:16:06.735Z,96.60
2019-04-26T10:18:35.552Z,96.80
2019-04-26T10:21:03.880Z,97.00
2019-04-26T10:23:32.107Z,97.90
2019-04-26T10:26:00.286Z,98.00
2019-04-26T10:28:28.324Z,98.20
2019-04-26T10:30:59.889Z,99.00
2019-04-26T10:33:28.097Z,98.70
2019-04-26T10:35:57.733Z,98.60
2019-04-26T10:38:26.011Z,98.70
2019-04-26T10:40:54.048Z,99.20
2019-04-26T10:43:22.204Z,99.70
2019-04-26T10:45:53.993Z,99.90
2019-04-26T10:48:23.045Z,99.90
2019-04-26T10:50:50.282Z,99.90
2019-04-26T10:53:36.353Z,99.90
2019-04-26T10:56:30.099Z,99.90
2019-04-26T10:59:15.498Z,99.90
2019-04-26T11:01:44.574Z,99.90
2019-04-26T11:04:12.628Z,99.80
2019-04-26T11:06:40.702Z,99.80
2019-04-26T11:09:10.003Z,99.90
2019-04-26T11:11:39.325Z,99.90
2019-04-26T11:14:07.576Z,99.90
2019-04-26T11:16:37.183Z,99.70
2019-04-26T11:19:06.268Z,99.90
2019-04-26T11:21:34.346Z,99.90
2019-04-26T11:24:02.542Z,99.90
2019-04-26T11:26:31.075Z,99.90
2019-04-26T11:29:00.731Z,99.90
2019-04-26T11:31:29.246Z,99.90
2019-04-26T11:34:05.065Z,99.90
2019-04-26T11:36:27.826Z,99.90
2019-04-26T11:38:56.006Z,99.90
2019-04-26T11:41:24.308Z,99.90
2019-04-26T11:43:53.013Z,99.90
2019-04-26T11:46:28.975Z,99.90
2019-04-26T11:48:58.750Z,99.90
2019-04-26T11:51:23.537Z,99.90
2019-04-26T11:53:52.546Z,99.90
2019-04-26T11:56:20.778Z,99.90
2019-04-26T11:58:52.437Z,99.90
2019-04-26T12:01:20.836Z,99.90
2019-04-26T12:04:14.538Z,99.90
2019-04-26T12:06:56.343Z,99.90
2019-04-26T12:09:31.662Z,99.90
2019-04-26T12:12:04.906Z,99.50
2019-04-26T12:14:33.544Z,99.10
2019-04-26T12:17:01.287Z,98.70
2019-04-26T12:19:30.577Z,98.10
2019-04-26T12:21:58.738Z,98.10
2019-04-26T12:24:29.998Z,98.50
2019-04-26T12:26:57.557Z,98.40
2019-04-26T12:29:25.821Z,97.80
2019-04-26T12:31:53.917Z,96.50
2019-04-26T12:34:22.092Z,96.40
2019-04-26T12:36:50.257Z,96.30
2019-04-26T12:39:18.396Z,95.90
2019-04-26T12:41:46.591Z,93.90
2019-04-26T12:44:14.753Z,93.70
2019-04-26T12:46:52.058Z,93.00
2019-04-26T12:49:20.247Z,93.10
2019-04-26T12:51:52.109Z,92.30
2019-04-26T12:54:20.326Z,93.10
2019-04-26T12:56:48.440Z,92.90
2019-04-26T12:59:16.667Z,94.10
2019-04-26T13:01:46.496Z,93.20
2019-04-26T13:04:14.774Z,93.80
2019-04-26T13:06:48.439Z,93.90
2019-04-26T13:09:22.019Z,94.40
2019-04-26T13:12:06.712Z,93.60
2019-04-26T13:14:44.410Z,93.50
2019-04-26T13:17:15.068Z,94.80
2019-04-26T13:19:43.115Z,95.10
2019-04-26T13:22:12.516Z,94.00
2019-04-26T13:24:41.258Z,93.80
2019-04-26T13:27:10.684Z,94.80
2019-04-26T13:29:39.294Z,94.60
2019-04-26T13:32:07.342Z,95.20
2019-04-26T13:34:37.261Z,95.80
2019-04-26T13:37:05.369Z,95.70
2019-04-26T13:39:33.465Z,96.30
2019-04-26T13:42:07.687Z,96.50
2019-04-26T13:44:58.850Z,96.90
2019-04-26T13:47:44.863Z,97.20
2019-04-26T13:50:16.548Z,97.00
2019-04-26T13:52:44.666Z,96.30
2019-04-26T13:55:13.034Z,96.00
2019-04-26T13:57:44.612Z,95.70
2019-04-26T14:00:15.652Z,96.70
2019-04-26T14:02:43.901Z,97.40
2019-04-26T14:05:15.168Z,97.90
2019-04-26T14:07:42.128Z,98.70
2019-04-26T14:10:10.361Z,98.30
2019-04-26T14:12:38.433Z,98.50
2019-04-26T14:15:08.457Z,98.80
2019-04-26T14:17:36.865Z,98.60
2019-04-26T14:20:05.636Z,98.70
2019-04-26T14:22:40.959Z,99.00
2019-04-26T14:25:12.203Z,99.00
2019-04-26T14:27:49.905Z,98.90
2019-04-26T14:30:16.695Z,98.40
2019-04-26T14:32:44.951Z,99.00
2019-04-26T14:35:15.576Z,99.10
2019-04-26T14:37:45.491Z,99.60
2019-04-26T14:40:17.298Z,99.90
2019-04-26T14:42:47.300Z,99.70
2019-04-26T14:45:23.334Z,99.80
2019-04-26T14:47:47.613Z,99.90
2019-04-26T14:50:14.717Z,99.80
2019-04-26T14:52:42.842Z,99.90
2019-04-26T14:55:10.858Z,99.90
2019-04-26T14:57:38.942Z,99.80
2019-04-26T15:00:09.088Z,99.00
2019-04-26T15:02:56.273Z,99.00
2019-04-26T15:05:49.316Z,98.60
2019-04-26T15:08:17.448Z,98.80
2019-04-26T15:10:48.779Z,97.90
2019-04-26T15:13:20.802Z,97.90
2019-04-26T15:15:46.794Z,97.10
2019-04-26T15:18:14.925Z,97.20
2019-04-26T15:20:42.986Z,97.20
2019-04-26T15:23:11.063Z,97.70
2019-04-26T15:25:41.346Z,97.50
2019-04-26T15:28:12.722Z,97.60
2019-04-26T15:30:45.901Z,97.70
2019-04-26T15:33:12.766Z,97.50
2019-04-26T15:35:42.202Z,97.50
2019-04-26T15:38:10.348Z,97.50
2019-04-26T15:41:05.451Z,97.80
2019-04-26T15:43:54.872Z,98.10
2019-04-26T15:46:42.635Z,98.00
2019-04-26T15:49:36.532Z,97.10
2019-04-26T15:52:03.713Z,96.60
2019-04-26T15:54:32.372Z,95.90
2019-04-26T15:57:02.116Z,96.00
2019-04-26T15:59:30.451Z,95.50
2019-04-26T16:01:58.504Z,95.50
2019-04-26T16:04:26.604Z,94.80
2019-04-26T16:06:54.840Z,94.70
2019-04-26T16:09:23.114Z,94.90
2019-04-26T16:11:55.174Z,94.90
2019-04-26T16:14:24.843Z,94.80
2019-04-26T16:16:52.480Z,94.80
2019-04-26T16:19:20.685Z,94.90
2019-04-26T16:21:54.063Z,95.30
2019-04-26T16:24:19.743Z,95.60
2019-04-26T16:26:53.609Z,96.40
2019-04-26T16:29:51.015Z,96.60
2019-04-26T16:32:43.234Z,96.20
2019-04-26T16:35:11.586Z,96.00
2019-04-26T16:37:39.702Z,95.30
2019-04-26T16:40:12.390Z,95.40
2019-04-26T16:42:38.735Z,95.00
2019-04-26T16:45:08.449Z,94.40
2019-04-26T16:47:45.001Z,94.50
2019-04-26T16:50:08.931Z,94.40
2019-04-26T16:52:42.348Z,94.40
2019-04-26T16:55:15.280Z,94.50
2019-04-26T16:57:43.779Z,94.60
2019-04-26T17:00:08.213Z,94.60
2019-04-26T17:02:37.069Z,94.90
2019-04-26T17:05:19.197Z,95.30
2019-04-26T17:07:39.319Z,95.30
2019-04-26T17:10:06.016Z,95.30
2019-04-26T17:12:34.065Z,95.80
2019-04-26T17:15:03.378Z,95.70
2019-04-26T17:17:33.197Z,95.40
2019-04-26T17:20:02.591Z,95.40
2019-04-26T17:22:56.982Z,95.60
2019-04-26T17:25:43.821Z,95.50
2019-04-26T17:28:13.958Z,95.60
2019-04-26T17:30:44.555Z,96.70
2019-04-26T17:33:13.115Z,96.90
2019-04-26T17:35:42.039Z,97.40
2019-04-26T17:38:11.527Z,97.90
2019-04-26T17:40:41.140Z,98.70
2019-04-26T17:43:09.959Z,99.30
2019-04-26T17:45:42.560Z,99.90
2019-04-26T17:48:13.838Z,99.90
2019-04-26T17:50:40.659Z,99.90
2019-04-26T17:53:10.660Z,99.90
2019-04-26T17:55:39.170Z,99.90
2019-04-26T17:58:11.787Z,99.90
2019-04-26T18:00:45.757Z,99.90
2019-04-26T18:03:07.625Z,99.90
2019-04-26T18:05:55.796Z,99.90
2019-04-26T18:08:31.462Z,99.90
2019-04-26T18:10:41.397Z,99.90
2019-04-26T18:13:11.269Z,99.90
2019-04-26T18:15:39.970Z,99.90
2019-04-26T18:18:35.873Z,99.90
2019-04-26T18:21:23.809Z,99.90
2019-04-26T18:23:57.039Z,99.90
2019-04-26T18:26:24.528Z,99.90
2019-04-26T18:28:54.976Z,99.90
2019-04-26T18:31:28.877Z,99.90
2019-04-26T18:33:54.811Z,99.90
2019-04-26T18:36:23.596Z,99.90
2019-04-26T18:38:53.565Z,99.90
2019-04-26T18:41:23.035Z,99.90
2019-04-26T18:43:54.048Z,99.90
2019-04-26T18:46:31.928Z,99.90
2019-04-26T18:49:00.367Z,99.90
2019-04-26T18:51:28.543Z,99.90
2019-04-26T18:54:09.219Z,99.90
2019-04-26T18:56:40.313Z,99.90
2019-04-26T18:59:11.748Z,99.90
2019-04-26T19:01:41.797Z,99.90
2019-04-26T19:04:13.543Z,99.90
2019-04-26T19:06:42.284Z,99.90
2019-04-26T19:09:12.027Z,99.90
2019-04-26T19:11:43.355Z,99.90
2019-04-26T19:14:26.558Z,99.90
2019-04-26T19:17:14.487Z,99.90
2019-04-26T19:20:02.111Z,99.90
2019-04-26T19:22:32.185Z,99.90
2019-04-26T19:25:02.051Z,99.90
2019-04-26T19:27:30.420Z,99.90
2019-04-26T19:30:04.306Z,99.90
2019-04-26T19:32:28.788Z,99.90
2019-04-26T19:35:00.697Z,99.90
2019-04-26T19:37:30.389Z,99.90
2019-04-26T19:39:57.123Z,99.90
2019-04-26T19:42:27.107Z,99.90
2019-04-26T19:45:11.733Z,99.90
2019-04-26T19:47:49.763Z,99.90
2019-04-26T19:50:30.745Z,99.90
2019-04-26T19:53:06.473Z,99.90
2019-04-26T19:56:12.153Z,99.90
2019-04-26T19:58:42.137Z,99.90
2019-04-26T20:01:12.207Z,99.90
2019-04-26T20:03:41.474Z,99.90
2019-04-26T20:06:14.117Z,99.90
2019-04-26T20:08:44.454Z,99.90
2019-04-26T20:11:12.884Z,99.90
2019-04-26T20:13:42.417Z,99.90
2019-04-26T20:16:10.564Z,99.90
2019-04-26T20:18:39.039Z,99.90
2019-04-26T20:21:12.387Z,99.90
2019-04-26T20:23:38.380Z,99.90
2019-04-26T20:26:09.003Z,99.90
2019-04-26T20:28:37.518Z,99.90
2019-04-26T20:31:25.503Z,99.90
2019-04-26T20:33:53.636Z,99.90
2019-04-26T20:36:21.749Z,99.90
2019-04-26T20:38:49.929Z,99.90
2019-04-26T20:41:18.002Z,99.90
2019-04-26T20:43:56.576Z,99.90
2019-04-26T20:46:16.500Z,99.90
2019-04-26T20:48:44.565Z,99.90
2019-04-26T20:51:12.792Z,99.90
2019-04-26T20:53:43.465Z,99.90
2019-04-26T20:56:16.655Z,99.90
2019-04-26T20:58:43.181Z,99.90
2019-04-26T21:01:14.095Z,99.90
2019-04-26T21:03:42.876Z,99.90
2019-04-26T21:06:11.567Z,99.90
2019-04-26T21:08:39.739Z,99.90
2019-04-26T21:11:07.828Z,99.90
2019-04-26T21:13:35.960Z,99.90
2019-04-26T21:16:10.450Z,99.90
2019-04-26T21:18:40.214Z,99.90
2019-04-26T21:21:06.051Z,99.90
2019-04-26T21:23:39.939Z,99.90
2019-04-26T21:26:42.475Z,99.90
2019-04-26T21:29:20.288Z,99.90
2019-04-26T21:32:06.574Z,99.90
2019-04-26T21:34:36.749Z,99.90
2019-04-26T21:37:23.721Z,99.90
2019-04-26T21:40:11.464Z,99.90
2019-04-26T21:42:42.665Z,99.90
2019-04-26T21:45:10.220Z,99.90
2019-04-26T21:47:38.391Z,99.90
2019-04-26T21:50:06.620Z,99.90
2019-04-26T21:52:34.893Z,99.90
2019-04-26T21:55:04.596Z,99.90
2019-04-26T21:57:34.890Z,99.90
2019-04-26T22:00:07.380Z,99.90
2019-04-26T22:02:37.673Z,99.90
2019-04-26T22:05:08.073Z,99.90
2019-04-26T22:07:39.554Z,99.90
2019-04-26T22:10:23.475Z,99.90
2019-04-26T22:12:51.789Z,99.90
2019-04-26T22:15:40.304Z,99.90
2019-04-26T22:18:16.466Z,99.90
2019-04-26T22:20:52.142Z,99.90
2019-04-26T22:23:51.781Z,99.90
2019-04-26T22:26:20.275Z,99.90
2019-04-26T22:28:48.318Z,99.90
2019-04-26T22:31:16.569Z,99.90
2019-04-26T22:33:44.710Z,99.90
2019-04-26T22:36:13.121Z,99.90
2019-04-26T22:38:42.853Z,99.90
2019-04-26T22:41:11.020Z,99.90
2019-04-26T22:43:59.705Z,99.90
2019-04-26T22:46:50.214Z,99.90
2019-04-26T22:49:18.593Z,99.90
2019-04-26T22:51:46.626Z,99.90
2019-04-26T22:54:14.746Z,99.90
2019-04-26T22:56:45.645Z,99.90
2019-04-26T22:59:13.950Z,99.90
2019-04-26T23:01:44.707Z,99.90
2019-04-26T23:04:16.245Z,99.90
2019-04-26T23:06:46.959Z,99.90
2019-04-26T23:09:16.780Z,99.90
2019-04-26T23:11:46.676Z,99.90
2019-04-26T23:14:28.918Z,99.90
2019-04-26T23:17:34.750Z,99.90
2019-04-26T23:20:29.100Z,99.90
2019-04-26T23:23:00.443Z,99.90
2019-04-26T23:25:27.711Z,99.90
2019-04-26T23:27:58.248Z,99.90
2019-04-26T23:30:27.657Z,99.90
2019-04-26T23:32:58.553Z,99.90
2019-04-26T23:35:26.673Z,99.90
2019-04-26T23:37:56.503Z,99.90
2019-04-26T23:40:28.770Z,99.90
2019-04-26T23:42:54.752Z,99.90
2019-04-26T23:45:23.157Z,99.90
2019-04-26T23:47:52.928Z,99.90
2019-04-26T23:50:25.658Z,99.90
2019-04-26T23:52:53.089Z,99.90
2019-04-26T23:55:21.419Z,99.90
2019-04-26T23:57:49.468Z,99.90
